Time;durP1;ratioP1;P1;durP2;ratioP2;P2;SDS_P1;SDS_P2;PMS_P1;PMS_P2;Temp;Humidity;BMP_temperature;BMP_pressure;BME280_temperature;BME280_humidity;BME280_pressure;Samples;Min_cycle;Max_cycle;Signal;HPM_P1;HPM_P2
2022/08/31 00:04:43;;;;;;;;;;;24.50;60.30;;;;;;4998334;28;20506;-14
2022/08/31 00:07:08;;;;;;;0.90;0.90;;;24.50;60.30;;;;;;4997738;28;19960;-14
2022/08/31 00:09:34;;;;;;;1.85;0.90;;;24.50;60.20;;;;;;5013087;28;20084;-14
2022/08/31 00:12:00;;;;;;;0.90;0.90;;;24.50;60.30;;;;;;4998895;28;20042;-13
2022/08/31 00:14:25;;;;;;;0.70;0.70;;;24.50;60.20;;;;;;4998076;28;20046;-14
2022/08/31 00:16:51;;;;;;;1.05;0.60;;;24.50;60.20;;;;;;5000630;28;20504;-15
2022/08/31 00:19:17;;;;;;;0.70;0.70;;;24.50;60.20;;;;;;4999523;28;20458;-15
2022/08/31 00:21:42;;;;;;;0.70;0.70;;;24.50;60.30;;;;;;5005762;28;20051;-14
2022/08/31 00:24:08;;;;;;;0.90;0.90;;;24.50;60.40;;;;;;4995902;28;20081;-14
2022/08/31 00:26:34;;;;;;;0.80;0.80;;;24.50;60.40;;;;;;4998612;28;20121;-14
2022/08/31 00:28:59;;;;;;;0.82;0.80;;;24.50;60.40;;;;;;4998773;28;20108;-15
2022/08/31 00:31:25;;;;;;;0.70;0.70;;;24.50;60.40;;;;;;4996997;28;20103;-14
2022/08/31 00:33:51;;;;;;;0.85;0.85;;;24.40;60.40;;;;;;5002170;28;20693;-16
2022/08/31 00:36:18;;;;;;;0.70;0.70;;;24.40;60.30;;;;;;4997962;28;20038;-14
2022/08/31 00:38:43;;;;;;;0.63;0.63;;;24.50;60.40;;;;;;4998502;28;20095;-19
2022/08/31 00:41:09;;;;;;;0.60;0.60;;;24.40;60.30;;;;;;5002586;28;20585;-24
2022/08/31 00:43:52;;;;;;;0.80;0.80;;;24.50;60.40;;;;;;4995833;28;20108;-15
2022/08/31 00:46:26;;;;;;;0.80;0.80;;;24.40;60.30;;;;;;5005502;28;20053;-17
2022/08/31 00:49:21;;;;;;;0.70;0.70;;;24.50;60.30;;;;;;5001141;28;20420;-19
2022/08/31 00:51:55;;;;;;;0.77;0.60;;;24.50;60.40;;;;;;5013944;28;20417;-14
2022/08/31 00:54:23;;;;;;;0.80;0.73;;;24.40;60.30;;;;;;4996758;28;20060;-14
2022/08/31 00:56:49;;;;;;;0.60;0.60;;;24.40;60.30;;;;;;5001902;28;20053;-14
2022/08/31 00:59:17;;;;;;;0.80;0.80;;;24.40;60.30;;;;;;5001163;28;20052;-14
2022/08/31 01:01:42;;;;;;;0.80;0.80;;;24.40;60.30;;;;;;5001039;28;20054;-14
2022/08/31 01:04:08;;;;;;;0.60;0.60;;;24.40;60.20;;;;;;4998630;28;20091;-14
2022/08/31 01:06:33;;;;;;;0.60;0.60;;;24.40;60.30;;;;;;5002271;28;20041;-13
2022/08/31 01:08:59;;;;;;;0.70;0.70;;;24.40;60.30;;;;;;5002749;28;20069;-15
2022/08/31 01:11:25;;;;;;;0.70;0.70;;;24.50;60.30;;;;;;5000149;28;20501;-22
2022/08/31 01:13:50;;;;;;;0.80;0.80;;;24.50;60.30;;;;;;4999181;28;20404;-14
2022/08/31 01:16:24;;;;;;;0.90;0.90;;;24.50;60.30;;;;;;4998349;28;20042;-15
2022/08/31 01:18:49;;;;;;;0.70;0.70;;;24.40;60.20;;;;;;5001596;28;20454;-14
2022/08/31 01:21:28;;;;;;;0.70;0.70;;;24.50;60.30;;;;;;4984595;28;20054;-16
2022/08/31 01:23:55;;;;;;;0.68;0.68;;;24.40;60.30;;;;;;5002252;28;20046;-15
2022/08/31 01:26:22;;;;;;;0.95;0.82;;;24.40;60.30;;;;;;5004758;28;20137;-14
2022/08/31 01:28:48;;;;;;;0.75;0.75;;;24.40;60.30;;;;;;4996322;28;20035;-14
2022/08/31 01:31:21;;;;;;;0.90;0.90;;;24.40;60.20;;;;;;4988771;28;20057;-14
2022/08/31 01:33:47;;;;;;;0.93;0.60;;;24.40;60.30;;;;;;5006156;28;20062;-14
2022/08/31 01:36:12;;;;;;;0.63;0.63;;;24.40;60.20;;;;;;4999594;28;20077;-14
2022/08/31 01:38:38;;;;;;;0.70;0.70;;;24.40;60.30;;;;;;5009415;28;20075;-14
2022/08/31 01:41:04;;;;;;;0.70;0.70;;;24.40;60.30;;;;;;5010851;28;20038;-14
2022/08/31 01:43:32;;;;;;;1.00;1.00;;;24.40;60.30;;;;;;5001029;28;20046;-15
2022/08/31 01:45:59;;;;;;;1.08;1.08;;;24.40;60.30;;;;;;4997129;28;20053;-14
2022/08/31 01:48:24;;;;;;;0.90;0.90;;;24.40;60.30;;;;;;5008273;28;20048;-15
2022/08/31 01:50:50;;;;;;;0.85;0.85;;;24.40;60.30;;;;;;5002853;28;20117;-14
2022/08/31 01:53:16;;;;;;;0.80;0.80;;;24.40;60.30;;;;;;5081832;28;20081;-14
2022/08/31 01:55:41;;;;;;;1.20;1.10;;;24.40;60.30;;;;;;5001265;28;20050;-14
2022/08/31 01:58:07;;;;;;;0.73;0.73;;;24.40;60.20;;;;;;5001858;28;20174;-14
2022/08/31 02:00:33;;;;;;;0.70;0.70;;;24.40;60.20;;;;;;5004398;28;20050;-15
2022/08/31 02:02:59;;;;;;;0.73;0.73;;;24.40;60.30;;;;;;5002248;28;20088;-15
2022/08/31 02:05:27;;;;;;;0.80;0.80;;;24.40;60.30;;;;;;5001760;28;20053;-14
2022/08/31 02:07:53;;;;;;;0.80;0.80;;;24.40;60.30;;;;;;5004336;28;20035;-14
2022/08/31 02:10:18;;;;;;;0.50;0.50;;;24.40;60.30;;;;;;4999029;28;20183;-14
2022/08/31 02:12:44;;;;;;;0.70;0.70;;;24.40;60.30;;;;;;5001417;28;20572;-15
2022/08/31 02:15:10;;;;;;;0.77;0.77;;;24.40;60.30;;;;;;4997820;28;20044;-14
2022/08/31 02:17:35;;;;;;;0.70;0.70;;;24.40;60.30;;;;;;5007782;28;20033;-14
2022/08/31 02:20:01;;;;;;;0.75;0.75;;;24.40;60.30;;;;;;5008000;28;20042;-16
2022/08/31 02:22:27;;;;;;;0.70;0.70;;;24.40;60.30;;;;;;5004222;28;20061;-15
2022/08/31 02:24:52;;;;;;;0.82;0.82;;;24.40;60.30;;;;;;5000750;28;20678;-14
2022/08/31 02:27:18;;;;;;;0.80;0.80;;;24.40;60.30;;;;;;5001206;28;20054;-14
2022/08/31 02:29:43;;;;;;;0.68;0.68;;;24.40;60.30;;;;;;5000393;28;20404;-14
2022/08/31 02:32:10;;;;;;;0.68;0.68;;;24.40;60.30;;;;;;4996456;28;20125;-15
2022/08/31 02:34:35;;;;;;;0.70;0.70;;;24.40;60.30;;;;;;4997716;28;20045;-14
2022/08/31 02:37:01;;;;;;;0.50;0.50;;;24.40;60.30;;;;;;5000640;28;20042;-21
2022/08/31 02:39:26;;;;;;;0.50;0.50;;;24.40;60.30;;;;;;4998224;28;20121;-19
2022/08/31 02:41:52;;;;;;;0.52;0.52;;;24.40;60.30;;;;;;4999860;28;20649;-15
2022/08/31 02:44:18;;;;;;;0.60;0.60;;;24.40;60.30;;;;;;5006683;28;20034;-21
2022/08/31 02:46:44;;;;;;;0.68;0.60;;;24.40;60.40;;;;;;5006675;28;20038;-14
2022/08/31 02:49:09;;;;;;;0.50;0.50;;;24.40;60.40;;;;;;5004803;28;20034;-14
2022/08/31 02:51:39;;;;;;;0.60;0.60;;;24.40;60.30;;;;;;4998885;28;20100;-17
2022/08/31 02:54:04;;;;;;;0.55;0.55;;;24.40;60.30;;;;;;4996924;28;20063;-15
2022/08/31 02:56:30;;;;;;;0.75;0.75;;;24.40;60.30;;;;;;4998388;28;20042;-14
2022/08/31 02:58:55;;;;;;;0.60;0.60;;;24.40;60.30;;;;;;4998356;28;20132;-14
2022/08/31 03:01:22;;;;;;;0.75;0.75;;;24.40;60.30;;;;;;4996511;28;20046;-14
2022/08/31 03:03:47;;;;;;;0.50;0.50;;;24.40;61.20;;;;;;4996743;28;20038;-15
2022/08/31 03:06:13;;;;;;;0.70;0.70;;;24.40;60.30;;;;;;4998671;28;20057;-14
2022/08/31 03:08:40;;;;;;;0.60;0.60;;;24.40;60.30;;;;;;4997081;28;20054;-15
2022/08/31 03:11:06;;;;;;;0.60;0.60;;;24.40;60.40;;;;;;4997321;28;20497;-16
2022/08/31 03:13:32;;;;;;;0.50;0.50;;;24.40;60.40;;;;;;4999036;28;20047;-14
2022/08/31 03:15:57;;;;;;;0.43;0.43;;;24.40;60.40;;;;;;5002597;28;20041;-14
2022/08/31 03:18:23;;;;;;;0.60;0.60;;;24.40;60.30;;;;;;4998793;28;20061;-15
2022/08/31 03:20:49;;;;;;;0.77;0.77;;;24.40;60.30;;;;;;4999402;28;20468;-15
2022/08/31 03:23:14;;;;;;;0.50;0.50;;;24.30;60.30;;;;;;4993323;28;20046;-15
2022/08/31 03:25:40;;;;;;;0.40;0.40;;;24.40;60.40;;;;;;4995950;28;20048;-15
2022/08/31 03:28:06;;;;;;;0.60;0.60;;;24.40;60.30;;;;;;4999264;28;20539;-14
2022/08/31 03:30:32;;;;;;;0.68;0.68;;;24.40;60.40;;;;;;5000615;28;20042;-15
2022/08/31 03:32:57;;;;;;;0.60;0.60;;;24.40;60.40;;;;;;4996914;28;20034;-14
2022/08/31 03:35:23;;;;;;;0.50;0.50;;;24.40;60.40;;;;;;5003720;28;20117;-14
2022/08/31 03:37:48;;;;;;;0.50;0.50;;;24.40;60.40;;;;;;4997935;28;20577;-14
2022/08/31 03:40:14;;;;;;;0.73;0.65;;;24.40;60.40;;;;;;5002659;28;20103;-14
2022/08/31 03:42:40;;;;;;;0.93;0.75;;;24.30;60.30;;;;;;5011386;28;20056;-15
2022/08/31 03:45:07;;;;;;;0.60;0.60;;;24.30;60.40;;;;;;4999093;28;20531;-14
2022/08/31 03:47:33;;;;;;;0.38;0.38;;;24.30;60.40;;;;;;5008427;28;20428;-14
2022/08/31 03:49:59;;;;;;;0.65;0.65;;;24.30;61.10;;;;;;5000250;28;20061;-14
2022/08/31 03:52:24;;;;;;;0.60;0.60;;;24.30;60.30;;;;;;5001017;28;20046;-14
2022/08/31 03:54:50;;;;;;;0.60;0.60;;;24.30;60.40;;;;;;5003869;28;20045;-14
2022/08/31 03:57:15;;;;;;;0.70;0.70;;;24.40;60.40;;;;;;4999982;28;20061;-14
2022/08/31 03:59:41;;;;;;;0.50;0.50;;;24.30;60.30;;;;;;5002526;28;20041;-14
2022/08/31 04:02:06;;;;;;;0.63;0.55;;;24.30;60.40;;;;;;5002518;28;20505;-16
2022/08/31 04:04:33;;;;;;;0.50;0.50;;;24.30;60.40;;;;;;4999492;28;20038;-14
2022/08/31 04:06:59;;;;;;;0.40;0.40;;;24.30;60.40;;;;;;5003527;28;20034;-14
2022/08/31 04:09:24;;;;;;;0.70;0.70;;;24.30;60.40;;;;;;4998386;28;20050;-20
2022/08/31 04:11:50;;;;;;;0.60;0.60;;;24.30;60.40;;;;;;5001479;28;20039;-15
2022/08/31 04:14:16;;;;;;;0.55;0.55;;;24.30;60.40;;;;;;5000844;28;20042;-14
2022/08/31 04:16:42;;;;;;;0.85;0.68;;;24.30;60.40;;;;;;5007784;28;20045;-15
2022/08/31 04:19:08;;;;;;;0.60;0.60;;;24.30;60.50;;;;;;4998053;28;20425;-15
2022/08/31 04:21:33;;;;;;;0.57;0.57;;;24.30;60.40;;;;;;4998860;28;20519;-14
2022/08/31 04:23:59;;;;;;;0.65;0.65;;;24.30;60.40;;;;;;5001126;28;20038;-14
2022/08/31 04:26:30;;;;;;;0.70;0.70;;;24.30;60.40;;;;;;5005836;28;20057;-15
2022/08/31 04:28:56;;;;;;;0.52;0.52;;;24.30;60.50;;;;;;5003554;28;20190;-15
2022/08/31 04:31:22;;;;;;;0.70;0.70;;;24.30;60.40;;;;;;5013652;28;20129;-17
2022/08/31 04:33:48;;;;;;;0.68;0.68;;;24.30;60.40;;;;;;5007648;28;20083;-14
2022/08/31 04:36:17;;;;;;;0.47;0.47;;;24.30;61.30;;;;;;4998951;28;20079;-15
2022/08/31 04:38:46;;;;;;;0.68;0.55;;;24.30;60.40;;;;;;5001525;28;20531;-14
2022/08/31 04:41:13;;;;;;;0.65;0.65;;;24.30;60.50;;;;;;5006645;28;20524;-15
2022/08/31 04:43:41;;;;;;;0.80;0.80;;;24.30;60.50;;;;;;5000072;28;20066;-16
2022/08/31 04:46:07;;;;;;;0.70;0.70;;;24.30;60.50;;;;;;5010336;28;20138;-15
2022/08/31 04:48:33;;;;;;;0.70;0.70;;;24.30;60.50;;;;;;5002610;28;20045;-14
2022/08/31 04:51:12;;;;;;;0.57;0.57;;;24.30;60.50;;;;;;5001322;28;20499;-14
2022/08/31 04:53:38;;;;;;;0.50;0.50;;;24.30;60.60;;;;;;4999686;28;20577;-15
2022/08/31 04:56:06;;;;;;;1.58;0.63;;;24.30;60.50;;;;;;5003450;28;20038;-15
2022/08/31 04:58:32;;;;;;;0.60;0.60;;;24.30;60.50;;;;;;5012874;28;20059;-14
2022/08/31 05:00:57;;;;;;;0.50;0.50;;;24.30;60.60;;;;;;5006258;28;20046;-14
2022/08/31 05:03:23;;;;;;;0.43;0.43;;;24.30;60.50;;;;;;5000321;28;20041;-15
2022/08/31 05:05:51;;;;;;;0.50;0.50;;;24.30;61.30;;;;;;4998214;28;20038;-14
2022/08/31 05:08:17;;;;;;;0.70;0.70;;;24.30;60.50;;;;;;5002867;28;20113;-15
2022/08/31 05:10:42;;;;;;;0.52;0.52;;;24.30;60.60;;;;;;5007135;28;20039;-14
2022/08/31 05:13:08;;;;;;;0.50;0.50;;;24.30;60.60;;;;;;4997863;28;20037;-15
2022/08/31 05:15:35;;;;;;;0.50;0.50;;;24.30;60.60;;;;;;4999848;28;20404;-14
2022/08/31 05:18:00;;;;;;;0.47;0.47;;;24.30;60.50;;;;;;4986147;28;20115;-14
2022/08/31 05:20:26;;;;;;;0.50;0.50;;;24.30;60.60;;;;;;5002116;28;20424;-14
2022/08/31 05:22:52;;;;;;;0.40;0.40;;;24.30;60.50;;;;;;4998489;28;20027;-15
2022/08/31 05:25:17;;;;;;;0.60;0.60;;;24.30;60.50;;;;;;5000318;28;20592;-14
2022/08/31 05:27:43;;;;;;;0.47;0.47;;;24.30;60.50;;;;;;5012186;28;20044;-14
2022/08/31 05:30:09;;;;;;;0.43;0.43;;;24.30;60.60;;;;;;5003130;28;20046;-16
2022/08/31 05:32:35;;;;;;;0.50;0.50;;;24.30;60.50;;;;;;5005316;28;20042;-14
2022/08/31 05:35:00;;;;;;;0.30;0.30;;;24.30;60.50;;;;;;4997832;28;20385;-15
2022/08/31 05:37:26;;;;;;;0.73;0.73;;;24.20;60.60;;;;;;5000734;28;20038;-15
2022/08/31 05:39:52;;;;;;;0.52;0.52;;;24.30;60.60;;;;;;5001769;28;20050;-14
2022/08/31 05:42:19;;;;;;;0.50;0.50;;;24.30;60.60;;;;;;5000059;28;20042;-15
2022/08/31 05:44:45;;;;;;;0.50;0.50;;;24.30;60.60;;;;;;4997822;28;20095;-15
2022/08/31 05:47:11;;;;;;;0.47;0.47;;;24.30;60.60;;;;;;5008183;28;20053;-16
2022/08/31 05:49:37;;;;;;;1.23;0.60;;;24.30;60.50;;;;;;4999080;28;20134;-15
2022/08/31 05:52:04;;;;;;;0.70;0.70;;;24.20;60.70;;;;;;5008863;28;20135;-14
2022/08/31 05:54:31;;;;;;;3.15;1.30;;;24.00;61.50;;;;;;5001341;28;20102;-18
2022/08/31 05:56:57;;;;;;;1.65;1.25;;;24.00;61.40;;;;;;4649285;28;10000113;-15
2022/08/31 05:59:23;;;;;;;2.22;1.50;;;23.80;61.40;;;;;;4993634;28;20081;-14
2022/08/31 06:01:48;;;;;;;4.85;1.27;;;23.70;61.70;;;;;;4999871;28;20046;-14
2022/08/31 06:04:14;;;;;;;1.73;1.25;;;23.60;62.10;;;;;;4993000;28;20046;-16
2022/08/31 06:06:39;;;;;;;3.80;1.35;;;23.40;62.30;;;;;;4992953;28;20574;-14
2022/08/31 06:09:06;;;;;;;2.88;1.45;;;23.40;63.30;;;;;;4997546;28;20049;-16
2022/08/31 06:11:33;;;;;;;1.70;1.17;;;23.30;62.70;;;;;;4999517;28;20099;-14
2022/08/31 06:13:59;;;;;;;2.00;1.60;;;23.30;63.00;;;;;;5002074;28;20530;-14
2022/08/31 06:16:25;;;;;;;1.85;1.35;;;23.30;62.80;;;;;;4996313;28;20038;-14
2022/08/31 06:18:52;;;;;;;2.70;1.45;;;23.30;62.80;;;;;;4995795;28;20076;-14
2022/08/31 06:21:20;;;;;;;2.47;1.05;;;23.30;63.10;;;;;;4992971;28;20034;-15
2022/08/31 06:23:46;;;;;;;2.67;1.25;;;23.20;63.20;;;;;;4995288;28;20042;-17
2022/08/31 06:26:14;;;;;;;2.30;1.38;;;23.20;63.40;;;;;;4999033;28;20042;-16
2022/08/31 06:28:43;;;;;;;2.10;1.40;;;23.20;63.20;;;;;;4997317;28;20042;-15
2022/08/31 06:31:18;;;;;;;3.03;1.77;;;23.20;63.50;;;;;;4995856;28;20046;-15
2022/08/31 06:33:44;;;;;;;1.73;1.17;;;23.10;63.70;;;;;;4993299;28;20114;-15
2022/08/31 06:36:14;;;;;;;2.45;1.10;;;23.10;64.60;;;;;;4997875;28;20053;-16
2022/08/31 06:38:40;;;;;;;1.02;1.00;;;23.00;63.90;;;;;;4997645;28;20046;-19
2022/08/31 06:41:22;;;;;;;1.38;0.98;;;23.00;64.40;;;;;;5005356;28;20045;-14
2022/08/31 06:43:48;;;;;;;1.38;1.20;;;23.00;64.40;;;;;;4997814;28;20043;-17
2022/08/31 06:46:13;;;;;;;2.05;1.20;;;23.00;64.10;;;;;;4998549;28;20054;-17
2022/08/31 06:48:39;;;;;;;1.10;0.80;;;23.10;63.80;;;;;;4994906;28;20482;-16
2022/08/31 06:51:05;;;;;;;2.03;1.30;;;23.20;63.60;;;;;;4999011;28;20038;-14
2022/08/31 06:53:32;;;;;;;3.47;1.30;;;23.30;63.40;;;;;;4997874;28;20046;-18
2022/08/31 06:56:05;;;;;;;1.52;1.40;;;23.40;62.90;;;;;;5001561;28;20052;-19
2022/08/31 06:58:31;;;;;;;1.65;1.35;;;23.40;62.60;;;;;;4996312;28;20050;-20
2022/08/31 07:00:58;;;;;;;1.95;1.27;;;23.50;62.50;;;;;;5002831;28;20058;-19
2022/08/31 07:03:31;;;;;;;0.98;0.98;;;23.50;62.30;;;;;;5000483;28;20781;-18
2022/08/31 07:05:57;;;;;;;0.80;0.80;;;23.60;62.30;;;;;;5000639;28;20111;-18
2022/08/31 07:08:23;;;;;;;3.05;1.40;;;23.60;62.20;;;;;;4996377;28;20516;-19
2022/08/31 07:10:50;;;;;;;1.10;0.90;;;23.60;62.20;;;;;;4997947;28;20110;-18
2022/08/31 07:13:15;;;;;;;1.92;1.13;;;23.70;62.20;;;;;;4997948;28;20034;-18
2022/08/31 07:15:41;;;;;;;2.00;1.08;;;23.60;62.20;;;;;;5001145;28;20064;-18
2022/08/31 07:18:06;;;;;;;0.90;0.85;;;23.70;62.10;;;;;;5011224;28;20482;-19
2022/08/31 07:20:32;;;;;;;1.20;0.90;;;23.60;62.80;;;;;;5009139;28;20045;-19
2022/08/31 07:22:57;;;;;;;1.42;1.00;;;23.70;62.10;;;;;;4997763;28;20051;-19
2022/08/31 07:25:25;;;;;;;2.08;1.02;;;23.70;63.00;;;;;;4998015;28;20246;-18
2022/08/31 07:27:54;;;;;;;1.10;0.98;;;23.70;62.20;;;;;;4995243;28;20046;-17
2022/08/31 07:30:20;;;;;;;3.05;1.17;;;23.70;62.10;;;;;;4995916;28;20095;-18
2022/08/31 07:32:46;;;;;;;1.10;1.00;;;23.70;62.10;;;;;;5001258;28;20621;-18
2022/08/31 07:35:12;;;;;;;1.75;1.05;;;23.70;62.30;;;;;;4997761;28;20042;-18
2022/08/31 07:43:06;;;;;;;;;;;23.70;62.40;;;;;;4998659;28;20640;-17
2022/08/31 07:45:31;;;;;;;1.92;0.77;;;23.80;62.40;;;;;;5000936;28;20035;-18
2022/08/31 07:47:58;;;;;;;0.90;0.90;;;23.80;62.50;;;;;;4998634;28;20053;-17
2022/08/31 07:50:26;;;;;;;1.05;0.90;;;23.80;63.20;;;;;;4998821;28;20038;-18
2022/08/31 07:52:53;;;;;;;0.85;0.80;;;23.80;62.50;;;;;;4995336;28;20046;-18
2022/08/31 07:55:19;;;;;;;2.05;1.00;;;23.80;62.50;;;;;;4992648;28;20045;-18
2022/08/31 07:57:45;;;;;;;0.98;0.70;;;23.80;62.40;;;;;;4996419;28;20053;-19
2022/08/31 08:00:21;;;;;;;1.45;0.77;;;23.90;62.50;;;;;;4999444;28;20038;-18
2022/08/31 08:02:47;;;;;;;0.63;0.63;;;23.90;62.60;;;;;;4996440;28;20057;-17
2022/08/31 08:05:20;;;;;;;0.98;0.93;;;23.90;62.40;;;;;;4998594;28;20042;-18
2022/08/31 08:07:47;;;;;;;0.80;0.80;;;23.80;62.30;;;;;;4993215;28;20047;-17
2022/08/31 08:10:13;;;;;;;0.70;0.70;;;23.90;62.50;;;;;;4996849;28;20046;-17
2022/08/31 08:12:41;;;;;;;1.00;0.75;;;23.80;62.50;;;;;;4997954;28;20065;-17
2022/08/31 08:15:07;;;;;;;1.60;1.25;;;23.80;62.50;;;;;;4996422;28;20046;-18
2022/08/31 08:17:32;;;;;;;0.65;0.65;;;23.80;62.50;;;;;;4998552;28;20037;-18
2022/08/31 08:19:58;;;;;;;1.17;0.90;;;23.80;62.50;;;;;;4996545;28;20047;-17
2022/08/31 08:22:23;;;;;;;0.90;0.90;;;23.90;62.50;;;;;;4996188;28;20042;-19
2022/08/31 08:24:49;;;;;;;1.02;0.93;;;23.90;62.50;;;;;;4996293;28;20050;-18
2022/08/31 08:27:15;;;;;;;1.05;0.90;;;23.90;63.30;;;;;;4994971;28;20057;-18
2022/08/31 08:29:41;;;;;;;0.60;0.60;;;23.90;62.60;;;;;;4996565;28;20076;-18
2022/08/31 08:32:08;;;;;;;0.57;0.57;;;23.90;62.50;;;;;;5000569;28;20123;-18
2022/08/31 08:34:38;;;;;;;0.73;0.73;;;23.90;62.50;;;;;;4996881;28;20505;-18
2022/08/31 08:37:06;;;;;;;0.88;0.82;;;23.90;62.50;;;;;;5004115;28;20247;-18
2022/08/31 08:39:32;;;;;;;0.70;0.70;;;23.90;62.60;;;;;;4996074;28;20061;-18
2022/08/31 08:41:57;;;;;;;0.60;0.60;;;23.90;62.50;;;;;;4999462;28;20038;-18
2022/08/31 08:44:24;;;;;;;0.50;0.50;;;23.90;62.50;;;;;;4995622;28;20416;-17
2022/08/31 08:46:55;;;;;;;0.82;0.82;;;23.80;62.50;;;;;;5006911;28;20061;-18
2022/08/31 08:49:29;;;;;;;0.98;0.98;;;23.90;62.60;;;;;;4996954;28;20062;-20
2022/08/31 08:52:02;;;;;;;0.55;0.55;;;23.80;62.50;;;;;;4992092;28;20042;-18
2022/08/31 08:54:32;;;;;;;0.63;0.60;;;23.80;62.50;;;;;;4997871;28;20041;-18
2022/08/31 08:56:59;;;;;;;0.60;0.60;;;23.80;62.60;;;;;;4998312;28;20049;-19
2022/08/31 08:59:25;;;;;;;0.50;0.50;;;23.80;62.50;;;;;;4995543;28;20057;-19
2022/08/31 09:01:52;;;;;;;1.10;1.00;;;23.80;62.50;;;;;;4995726;28;20175;-18
2022/08/31 09:04:21;;;;;;;0.50;0.50;;;23.80;62.60;;;;;;4994805;28;20037;-18
2022/08/31 09:07:03;;;;;;;0.70;0.70;;;23.90;62.60;;;;;;4995703;28;20402;-18
2022/08/31 09:09:44;;;;;;;0.80;0.80;;;23.90;62.50;;;;;;4998293;28;20046;-18
2022/08/31 09:12:45;;;;;;;0.63;0.63;;;23.80;62.50;;;;;;4999855;28;20034;-18
2022/08/31 09:15:34;;;;;;;0.95;0.88;;;23.90;62.40;;;;;;5024174;28;20099;-18
2022/08/31 09:18:02;;;;;;;0.77;0.70;;;23.90;62.50;;;;;;5026611;28;20049;-18
2022/08/31 09:20:31;;;;;;;0.60;0.60;;;23.90;62.30;;;;;;5027881;28;20037;-18
2022/08/31 09:22:59;;;;;;;0.98;0.50;;;23.90;62.30;;;;;;5025269;28;20042;-18
2022/08/31 09:25:32;;;;;;;1.08;0.70;;;23.90;62.30;;;;;;5030501;28;20144;-19
2022/08/31 09:27:59;;;;;;;0.50;0.50;;;24.00;62.30;;;;;;5007468;28;20462;-18
2022/08/31 09:30:42;;;;;;;0.52;0.50;;;23.90;62.20;;;;;;5010137;28;20044;-19
2022/08/31 09:33:24;;;;;;;0.70;0.70;;;23.90;62.00;;;;;;5024039;28;20046;-18
2022/08/31 09:35:57;;;;;;;0.50;0.50;;;23.90;62.20;;;;;;5029489;28;20045;-18
2022/08/31 09:38:30;;;;;;;0.60;0.60;;;23.90;62.10;;;;;;5030169;28;20046;-18
2022/08/31 09:40:56;;;;;;;1.00;0.63;;;23.90;62.10;;;;;;5026179;28;20045;-21
2022/08/31 09:43:23;;;;;;;0.40;0.40;;;23.90;62.00;;;;;;5028521;28;20073;-18
2022/08/31 09:46:04;;;;;;;0.45;0.45;;;23.90;62.00;;;;;;5028616;28;20532;-18
2022/08/31 09:48:55;;;;;;;1.30;0.50;;;23.90;62.10;;;;;;5019388;28;20061;-18
2022/08/31 09:51:36;;;;;;;0.50;0.50;;;23.90;62.10;;;;;;4994960;28;20096;-18
2022/08/31 09:57:04;;;;;;;0.55;0.55;;;23.90;62.10;;;;;;4999938;28;20471;-27
2022/08/31 09:59:40;;;;;;;0.45;0.45;;;23.90;62.10;;;;;;5002403;28;20063;-18
2022/08/31 10:02:21;;;;;;;0.60;0.60;;;23.90;62.00;;;;;;5001697;28;20077;-18
2022/08/31 10:04:54;;;;;;;0.50;0.50;;;23.90;62.00;;;;;;5000002;28;20060;-18
2022/08/31 10:07:40;;;;;;;0.75;0.65;;;24.00;62.10;;;;;;5002942;28;20038;-18
2022/08/31 10:10:26;;;;;;;0.60;0.60;;;24.00;62.10;;;;;;5003067;28;20041;-18
2022/08/31 10:13:02;;;;;;;0.60;0.60;;;24.00;62.10;;;;;;4995548;28;20132;-18
2022/08/31 10:16:01;;;;;;;0.60;0.60;;;24.00;62.10;;;;;;4985393;28;20147;-18
2022/08/31 10:18:32;;;;;;;0.50;0.50;;;24.00;62.00;;;;;;5009372;28;20049;-18
2022/08/31 10:21:30;;;;;;;0.57;0.57;;;24.00;62.30;;;;;;5025801;28;20041;-18
2022/08/31 10:24:09;;;;;;;0.60;0.40;;;24.00;62.00;;;;;;5007062;28;20038;-18
2022/08/31 10:26:45;;;;;;;0.75;0.60;;;24.00;61.90;;;;;;5009364;28;20057;-18
2022/08/31 10:29:19;;;;;;;0.40;0.40;;;24.00;61.90;;;;;;5025473;28;20045;-17
2022/08/31 10:31:46;;;;;;;;;;;24.00;62.10;;;;;;5008992;28;20172;-18
2022/08/31 10:37:08;;;;;;;0.50;0.50;;;24.00;62.10;;;;;;5004879;28;20550;-18
2022/08/31 10:39:40;;;;;;;0.60;0.60;;;24.00;62.10;;;;;;5017626;28;20119;-18
2022/08/31 10:42:09;;;;;;;0.52;0.52;;;24.00;62.10;;;;;;5020088;28;20044;-18
2022/08/31 10:44:56;;;;;;;0.57;0.57;;;24.00;62.10;;;;;;5004241;28;20038;-18
2022/08/31 10:47:28;;;;;;;0.50;0.50;;;24.00;62.20;;;;;;5021193;28;20069;-18
2022/08/31 10:50:01;;;;;;;0.70;0.70;;;24.00;62.20;;;;;;5003516;28;20049;-19
2022/08/31 10:52:44;;;;;;;0.60;0.60;;;24.00;62.20;;;;;;4657245;28;10000187;-18
2022/08/31 10:55:41;;;;;;;0.60;0.60;;;24.00;62.30;;;;;;5004993;28;20038;-17
2022/08/31 10:58:10;;;;;;;1.00;0.43;;;24.00;62.30;;;;;;4996408;28;20050;-18
2022/08/31 11:01:06;;;;;;;0.35;0.35;;;24.00;62.50;;;;;;4995929;28;20042;-17
2022/08/31 11:03:57;;;;;;;0.47;0.47;;;24.00;62.60;;;;;;4996106;28;20050;-18
2022/08/31 11:06:36;;;;;;;0.45;0.40;;;24.00;62.60;;;;;;4989403;28;20060;-19
2022/08/31 11:09:22;;;;;;;0.63;0.63;;;24.00;62.40;;;;;;4988601;28;20108;-19
2022/08/31 11:12:03;;;;;;;0.50;0.50;;;24.00;62.20;;;;;;4997139;28;20067;-19
2022/08/31 11:15:01;;;;;;;1.85;0.73;;;24.00;62.60;;;;;;4991115;28;20161;-20
2022/08/31 11:18:07;;;;;;;0.73;0.60;;;24.00;62.80;;;;;;4988318;28;20050;-19
2022/08/31 11:20:55;;;;;;;0.50;0.50;;;24.00;63.20;;;;;;4663906;28;10000564;-19
2022/08/31 11:23:39;;;;;;;0.85;0.60;;;24.00;62.60;;;;;;4661757;28;9999763;-19
2022/08/31 11:26:26;;;;;;;0.47;0.47;;;24.10;62.90;;;;;;5014121;28;20444;-20
2022/08/31 11:28:57;;;;;;;0.82;0.70;;;24.00;63.20;;;;;;4993473;28;20132;-19
2022/08/31 11:31:24;;;;;;;1.17;0.50;;;24.00;63.70;;;;;;5015208;28;20132;-19
2022/08/31 11:33:56;;;;;;;0.50;0.50;;;24.00;64.80;;;;;;5011271;28;20037;-20
2022/08/31 11:36:49;;;;;;;0.50;0.50;;;24.00;63.90;;;;;;5011925;28;20566;-19
2022/08/31 11:39:17;;;;;;;0.40;0.40;;;24.10;63.50;;;;;;5000994;28;20076;-18
2022/08/31 11:41:46;;;;;;;0.47;0.47;;;24.10;64.50;;;;;;5014981;28;20089;-18
2022/08/31 11:44:38;;;;;;;0.98;0.70;;;24.00;64.20;;;;;;5016676;28;20076;-25
2022/08/31 11:47:27;;;;;;;0.50;0.50;;;24.00;63.80;;;;;;5016251;28;20052;-18
2022/08/31 11:49:54;;;;;;;0.60;0.50;;;24.00;63.90;;;;;;5014503;28;20077;-18
2022/08/31 11:52:23;;;;;;;0.47;0.47;;;24.10;64.00;;;;;;5003758;28;20049;-18
2022/08/31 11:54:49;;;;;;;0.68;0.55;;;24.10;63.30;;;;;;5015886;28;20050;-18
2022/08/31 11:57:28;;;;;;;0.40;0.40;;;24.10;63.40;;;;;;5006177;28;20048;-18
2022/08/31 11:59:53;;;;;;;0.45;0.45;;;24.10;63.10;;;;;;4995772;28;20054;-26
2022/08/31 12:02:19;;;;;;;1.15;0.38;;;24.10;63.10;;;;;;5000273;28;20052;-18
2022/08/31 12:04:50;;;;;;;1.25;0.50;;;24.10;62.90;;;;;;4997324;28;20489;-18
2022/08/31 12:07:43;;;;;;;0.52;0.52;;;24.10;63.40;;;;;;4998227;28;20107;-18
2022/08/31 12:10:28;;;;;;;0.73;0.73;;;24.10;63.20;;;;;;4986493;28;20045;-19
2022/08/31 12:13:08;;;;;;;;;;;24.10;64.10;;;;;;5004672;28;20054;-18
2022/08/31 12:15:59;;;;;;;0.60;0.40;;;24.20;62.80;;;;;;5008725;28;19925;-21
2022/08/31 12:18:47;;;;;;;0.40;0.40;;;24.20;63.00;;;;;;4992322;28;20522;-18
2022/08/31 12:24:36;;;;;;;0.40;0.40;;;24.20;62.90;;;;;;4993733;28;20126;-18
2022/08/31 12:27:42;;;;;;;0.43;0.43;;;24.20;63.00;;;;;;4992549;28;20046;-17
2022/08/31 12:30:18;;;;;;;1.85;0.40;;;24.20;63.10;;;;;;4987745;28;20647;-18
2022/08/31 12:32:44;;;;;;;0.38;0.38;;;24.20;63.00;;;;;;4992967;28;20069;-24
2022/08/31 12:35:21;;;;;;;1.13;0.43;;;24.20;63.10;;;;;;4993147;28;20073;-17
2022/08/31 12:38:00;;;;;;;0.70;0.60;;;24.20;63.10;;;;;;5005815;28;20046;-17
2022/08/31 12:40:28;;;;;;;0.50;0.50;;;24.20;63.40;;;;;;4999792;28;20046;-18
2022/08/31 12:43:06;;;;;;;0.50;0.50;;;24.30;63.00;;;;;;4991438;28;20054;-17
2022/08/31 12:45:35;;;;;;;0.60;0.60;;;24.20;63.10;;;;;;4994834;28;20496;-20
2022/08/31 12:48:10;;;;;;;0.52;0.52;;;24.20;63.10;;;;;;4996463;28;20046;-18
2022/08/31 12:50:41;;;;;;;0.55;0.30;;;24.20;62.80;;;;;;4992127;28;20615;-18
2022/08/31 12:53:30;;;;;;;0.30;0.30;;;24.30;62.80;;;;;;5014105;28;20509;-14
2022/08/31 12:56:34;;;;;;;0.50;0.50;;;24.30;63.20;;;;;;4996644;28;20103;-17
2022/08/31 12:59:02;;;;;;;0.70;0.50;;;24.30;63.00;;;;;;4967148;28;20046;-15
2022/08/31 13:01:28;;;;;;;1.67;0.43;;;24.30;62.80;;;;;;4997682;28;20053;-15
2022/08/31 13:04:00;;;;;;;0.55;0.50;;;24.30;62.80;;;;;;4995400;28;20042;-15
2022/08/31 13:06:36;;;;;;;0.32;0.32;;;24.30;62.80;;;;;;4996776;28;20048;-14
2022/08/31 13:09:03;;;;;;;0.40;0.40;;;24.30;62.90;;;;;;4997742;28;20058;-15
2022/08/31 13:11:41;;;;;;;0.40;0.40;;;24.30;62.80;;;;;;4995399;28;20031;-15
2022/08/31 13:14:23;;;;;;;0.40;0.40;;;24.30;62.80;;;;;;4996016;28;20046;-21
2022/08/31 13:17:03;;;;;;;0.50;0.50;;;24.40;62.80;;;;;;4994881;28;20053;-15
2022/08/31 13:19:31;;;;;;;0.75;0.45;;;24.30;62.90;;;;;;4997789;28;20068;-15
2022/08/31 13:22:06;;;;;;;0.47;0.40;;;24.40;62.80;;;;;;4997571;28;20042;-14